Terminal Aerodrome Forecast
Issued by NWS

Home | Current Version | Previous Version | Text Only | Print | Product List | Glossary On
Versions: 1 2 3 4 5 6 7 8 9 10 11 12 13 14 15 16 17 18 19 20
000
FTUS45 KBOI 191324 AAA
TAFMYL
TAF AMD
KMYL 191324Z 1913/2012 VRB06KT 5SM -RA BR BKN010 OVC020
     FM191900 20010KT P6SM -RA OVC030
     FM200200 VRB03KT P6SM -SHRA BKN040 OVC060
     FM200500 VRB03KT P6SM OVC050=

USA.gov is the U.S. government's official web portal to all federal, state and local government web resources and services.